Time;durP1;ratioP1;P1;durP2;ratioP2;P2;SDS_P1;SDS_P2;PMS_P1;PMS_P2;Temp;Humidity;BMP_temperature;BMP_pressure;BME280_temperature;BME280_humidity;BME280_pressure;Samples;Min_cycle;Max_cycle;Signal;HPM_P1;HPM_P2
2022/08/31 00:04:06;;;;;;;13.10;6.28;;;24.20;99.90;;;;;;5115570;28;20077;-54
2022/08/31 00:06:34;;;;;;;10.55;5.78;;;24.20;99.90;;;;;;5115553;28;20106;-52
2022/08/31 00:09:00;;;;;;;10.63;6.07;;;24.20;99.90;;;;;;5114445;28;20042;-54
2022/08/31 00:11:28;;;;;;;11.25;5.75;;;24.20;99.90;;;;;;5109860;28;20119;-54
2022/08/31 00:13:57;;;;;;;13.35;6.03;;;24.10;99.90;;;;;;5113573;28;20024;-51
2022/08/31 00:16:23;;;;;;;11.43;5.65;;;24.10;99.90;;;;;;5114771;28;20023;-54
2022/08/31 00:18:51;;;;;;;13.68;6.25;;;24.00;99.90;;;;;;5115205;28;20114;-53
2022/08/31 00:21:19;;;;;;;12.55;6.10;;;24.10;99.90;;;;;;5115215;28;20425;-54
2022/08/31 00:23:44;;;;;;;12.50;5.75;;;24.10;99.90;;;;;;5113785;28;20062;-55
2022/08/31 00:26:10;;;;;;;11.52;5.90;;;24.10;99.90;;;;;;5114333;28;20515;-54
2022/08/31 00:28:36;;;;;;;15.02;5.72;;;24.00;99.90;;;;;;5114975;28;20036;-51
2022/08/31 00:31:01;;;;;;;10.32;6.03;;;24.10;99.90;;;;;;5114207;28;20032;-56
2022/08/31 00:33:27;;;;;;;10.75;5.88;;;24.10;99.90;;;;;;5115065;28;20161;-53
2022/08/31 00:35:53;;;;;;;10.50;5.95;;;24.00;99.90;;;;;;5114459;28;20023;-54
2022/08/31 00:38:19;;;;;;;13.32;6.80;;;24.00;99.90;;;;;;5114478;28;20044;-54
2022/08/31 00:40:46;;;;;;;8.05;5.60;;;23.90;99.90;;;;;;5114149;28;20058;-55
2022/08/31 00:43:40;;;;;;;12.82;6.30;;;23.90;99.90;;;;;;5114853;28;20036;-54
2022/08/31 00:46:08;;;;;;;10.93;6.00;;;24.00;99.90;;;;;;5114245;28;20047;-54
2022/08/31 00:48:39;;;;;;;13.68;6.40;;;23.90;99.90;;;;;;5114394;28;20043;-55
2022/08/31 00:51:05;;;;;;;12.85;6.03;;;23.90;99.90;;;;;;5113208;28;20019;-52
2022/08/31 00:53:31;;;;;;;11.50;5.60;;;23.90;99.90;;;;;;5114117;28;20476;-54
2022/08/31 00:55:57;;;;;;;13.73;5.90;;;24.00;99.90;;;;;;5113705;28;20069;-53
2022/08/31 00:58:23;;;;;;;12.85;5.78;;;23.90;99.90;;;;;;5114268;28;20031;-54
2022/08/31 01:00:49;;;;;;;14.02;5.93;;;24.00;99.90;;;;;;5113847;28;20050;-53
2022/08/31 01:03:16;;;;;;;12.60;5.80;;;23.80;99.90;;;;;;5107174;28;20031;-53
2022/08/31 01:05:42;;;;;;;12.35;6.30;;;23.50;99.90;;;;;;5112223;28;20038;-55
2022/08/31 01:08:08;;;;;;;14.18;6.05;;;22.90;99.90;;;;;;5114051;28;20036;-53
2022/08/31 01:10:37;;;;;;;13.32;5.80;;;23.50;99.90;;;;;;5114149;28;20081;-54
2022/08/31 01:13:03;;;;;;;12.57;5.60;;;23.80;99.90;;;;;;5114073;28;20051;-52
2022/08/31 01:15:30;;;;;;;14.05;5.63;;;23.80;99.90;;;;;;5113829;28;20027;-54
2022/08/31 01:18:00;;;;;;;12.88;6.20;;;23.90;99.90;;;;;;5114076;28;20028;-54
2022/08/31 01:21:00;;;;;;;15.75;6.28;;;23.80;99.90;;;;;;5112415;28;20467;-49
2022/08/31 01:23:29;;;;;;;13.02;5.75;;;23.80;99.90;;;;;;5113322;28;20111;-54
2022/08/31 01:25:57;;;;;;;13.10;5.70;;;23.80;99.90;;;;;;5113590;28;20039;-53
2022/08/31 01:28:23;;;;;;;12.85;5.80;;;23.70;99.90;;;;;;5113212;28;20078;-54
2022/08/31 01:31:03;;;;;;;14.70;5.85;;;23.80;99.90;;;;;;5113952;28;20442;-55
2022/08/31 01:33:31;;;;;;;14.18;5.82;;;23.80;99.90;;;;;;5113891;28;20420;-55
2022/08/31 01:35:57;;;;;;;13.57;5.65;;;23.80;99.90;;;;;;5113131;28;20108;-53
2022/08/31 01:38:24;;;;;;;13.20;5.80;;;23.80;99.90;;;;;;5113625;28;20036;-55
2022/08/31 01:40:56;;;;;;;13.68;5.68;;;23.80;99.90;;;;;;5110653;28;20110;-54
2022/08/31 01:43:22;;;;;;;13.60;6.20;;;23.80;99.90;;;;;;5114006;28;20046;-55
2022/08/31 01:45:49;;;;;;;16.67;6.38;;;23.70;99.90;;;;;;5112702;28;20508;-51
2022/08/31 01:48:15;;;;;;;14.10;6.13;;;23.60;99.90;;;;;;5113153;28;20031;-51
2022/08/31 01:50:41;;;;;;;13.88;6.70;;;23.60;99.90;;;;;;5111546;28;20118;-55
2022/08/31 01:53:08;;;;;;;15.20;5.82;;;23.50;99.90;;;;;;5113353;28;20111;-53
2022/08/31 01:55:33;;;;;;;16.58;6.65;;;23.50;99.90;;;;;;5112970;28;20028;-56
2022/08/31 01:58:00;;;;;;;17.77;6.47;;;23.40;99.90;;;;;;5113511;28;20054;-54
2022/08/31 02:00:27;;;;;;;14.38;6.32;;;23.40;99.90;;;;;;5112999;28;20062;-53
2022/08/31 02:02:54;;;;;;;15.65;6.32;;;23.30;99.90;;;;;;5113094;28;20027;-54
2022/08/31 02:05:20;;;;;;;14.30;6.15;;;23.30;99.90;;;;;;5113011;28;20045;-54
2022/08/31 02:07:45;;;;;;;13.45;6.43;;;23.30;99.90;;;;;;5112818;28;20036;-52
2022/08/31 02:10:11;;;;;;;12.43;6.10;;;23.30;99.90;;;;;;5113161;28;20027;-55
2022/08/31 02:12:37;;;;;;;13.70;6.35;;;23.20;99.90;;;;;;5112407;28;20034;-53
2022/08/31 02:15:03;;;;;;;13.77;6.32;;;23.20;99.90;;;;;;5112477;28;20057;-54
2022/08/31 02:17:29;;;;;;;12.02;6.35;;;23.10;99.90;;;;;;5113108;28;20023;-51
2022/08/31 02:19:55;;;;;;;14.75;6.38;;;23.10;99.90;;;;;;5112376;28;20067;-53
2022/08/31 02:22:20;;;;;;;10.68;5.80;;;23.10;99.90;;;;;;5112487;28;20024;-53
2022/08/31 02:24:46;;;;;;;17.17;6.70;;;23.20;99.90;;;;;;5112539;28;20106;-56
2022/08/31 02:27:12;;;;;;;14.65;6.47;;;23.20;99.90;;;;;;5112343;28;20023;-52
2022/08/31 02:29:38;;;;;;;15.38;6.50;;;23.30;99.90;;;;;;5111345;28;20062;-54
2022/08/31 02:32:04;;;;;;;12.30;6.28;;;23.40;99.90;;;;;;5112188;28;20483;-51
2022/08/31 02:34:30;;;;;;;12.43;6.55;;;23.40;99.90;;;;;;5111128;28;20028;-56
2022/08/31 02:36:55;;;;;;;15.30;6.95;;;23.30;99.90;;;;;;5112105;28;20039;-54
2022/08/31 02:39:21;;;;;;;15.20;6.78;;;23.10;99.90;;;;;;5112069;28;20058;-55
2022/08/31 02:41:47;;;;;;;18.42;6.70;;;23.10;99.90;;;;;;5110736;28;20314;-54
2022/08/31 02:44:13;;;;;;;13.27;6.78;;;23.20;99.90;;;;;;5111677;28;20055;-52
2022/08/31 02:46:39;;;;;;;19.95;7.43;;;23.10;99.90;;;;;;5111537;28;20077;-54
2022/08/31 02:49:04;;;;;;;16.33;6.85;;;23.20;99.90;;;;;;5111923;28;20197;-51
2022/08/31 02:51:30;;;;;;;13.70;6.57;;;23.10;99.90;;;;;;5110242;28;20035;-55
2022/08/31 02:53:56;;;;;;;14.73;6.38;;;23.00;99.90;;;;;;5111855;28;20031;-54
2022/08/31 02:56:23;;;;;;;14.82;7.25;;;23.00;99.90;;;;;;5112696;28;20099;-51
2022/08/31 02:58:53;;;;;;;15.45;6.97;;;23.10;99.90;;;;;;5112540;28;20032;-53
2022/08/31 03:01:21;;;;;;;14.20;6.55;;;23.00;99.90;;;;;;5111330;28;20400;-55
2022/08/31 03:03:47;;;;;;;13.90;6.80;;;23.00;99.90;;;;;;5111346;28;20031;-54
2022/08/31 03:06:13;;;;;;;15.18;6.85;;;23.00;99.90;;;;;;5111670;28;20160;-55
2022/08/31 03:08:40;;;;;;;12.50;6.85;;;23.00;99.90;;;;;;5112383;28;20118;-53
2022/08/31 03:11:07;;;;;;;15.45;7.40;;;22.90;99.90;;;;;;5111502;28;20031;-54
2022/08/31 03:13:34;;;;;;;15.38;7.43;;;22.90;99.90;;;;;;5112130;28;20020;-52
2022/08/31 03:16:00;;;;;;;14.85;7.28;;;22.90;99.90;;;;;;5111060;28;20030;-54
2022/08/31 03:18:26;;;;;;;14.43;7.85;;;22.90;99.90;;;;;;5111666;28;20023;-53
2022/08/31 03:20:51;;;;;;;12.98;7.53;;;22.90;99.90;;;;;;5111517;28;20050;-53
2022/08/31 03:23:17;;;;;;;17.35;7.72;;;22.90;99.90;;;;;;5112121;28;20070;-54
2022/08/31 03:25:43;;;;;;;14.27;7.78;;;22.90;99.90;;;;;;5111307;28;20108;-55
2022/08/31 03:28:09;;;;;;;16.10;8.55;;;22.80;99.90;;;;;;5110943;28;20040;-54
2022/08/31 03:30:35;;;;;;;17.60;8.10;;;22.80;99.90;;;;;;5111613;28;20103;-55
2022/08/31 03:33:01;;;;;;;18.13;7.63;;;22.80;99.90;;;;;;5110996;28;20090;-50
2022/08/31 03:35:27;;;;;;;16.77;8.23;;;22.70;99.90;;;;;;5111589;28;20028;-55
2022/08/31 03:37:53;;;;;;;14.77;7.55;;;22.70;99.90;;;;;;5110067;28;20095;-54
2022/08/31 03:40:18;;;;;;;15.75;7.63;;;22.80;99.90;;;;;;5111140;28;20115;-54
2022/08/31 03:42:44;;;;;;;13.75;8.15;;;22.90;99.90;;;;;;5111610;28;20388;-55
2022/08/31 03:45:11;;;;;;;12.35;7.55;;;22.90;99.90;;;;;;5110724;28;20036;-56
2022/08/31 03:47:37;;;;;;;15.45;7.75;;;22.90;99.90;;;;;;5111274;28;20035;-55
2022/08/31 03:50:05;;;;;;;13.95;7.40;;;22.90;99.90;;;;;;5111767;28;20032;-55
2022/08/31 03:52:31;;;;;;;15.02;7.43;;;22.90;99.90;;;;;;5111307;28;20019;-54
2022/08/31 03:54:56;;;;;;;15.70;7.70;;;22.90;99.90;;;;;;5111313;28;20081;-55
2022/08/31 03:57:22;;;;;;;12.30;7.88;;;22.90;99.90;;;;;;5111624;28;20028;-55
2022/08/31 03:59:52;;;;;;;16.48;8.05;;;22.90;99.90;;;;;;5110796;28;20031;-55
2022/08/31 04:02:19;;;;;;;14.93;7.97;;;22.70;99.90;;;;;;5111639;28;20127;-50
2022/08/31 04:04:52;;;;;;;15.77;7.47;;;22.50;99.90;;;;;;5110909;28;20079;-51
2022/08/31 04:07:19;;;;;;;16.00;7.97;;;22.60;99.90;;;;;;5112133;28;20035;-52
2022/08/31 04:09:47;;;;;;;14.38;7.32;;;22.70;99.90;;;;;;5110830;28;20508;-52
2022/08/31 04:12:14;;;;;;;13.10;7.28;;;22.70;99.90;;;;;;5111143;28;20035;-49
2022/08/31 04:14:40;;;;;;;14.27;7.50;;;22.70;99.90;;;;;;5114110;28;20012;-55
2022/08/31 04:17:08;;;;;;;16.50;7.20;;;22.70;99.90;;;;;;5115046;28;20027;-55
2022/08/31 04:19:34;;;;;;;17.75;8.63;;;22.60;99.90;;;;;;5115023;28;20030;-55
2022/08/31 04:21:59;;;;;;;14.77;8.15;;;22.60;99.90;;;;;;5115023;28;20035;-54
2022/08/31 04:24:25;;;;;;;18.35;8.63;;;22.60;99.90;;;;;;5114804;28;20073;-54
2022/08/31 04:26:51;;;;;;;14.30;8.02;;;22.50;99.90;;;;;;5115237;28;20031;-55
2022/08/31 04:29:17;;;;;;;16.60;8.02;;;22.50;99.90;;;;;;5113709;28;20383;-54
2022/08/31 04:31:43;;;;;;;15.00;8.48;;;22.60;99.90;;;;;;5114469;28;20045;-52
2022/08/31 04:34:09;;;;;;;16.33;8.10;;;22.70;99.90;;;;;;5114995;28;20438;-54
2022/08/31 04:36:36;;;;;;;16.60;8.07;;;22.70;99.90;;;;;;5112963;28;20031;-53
2022/08/31 04:39:04;;;;;;;16.52;8.35;;;22.70;99.90;;;;;;5114609;28;20028;-55
2022/08/31 04:41:32;;;;;;;13.85;7.82;;;22.50;99.90;;;;;;5114359;28;20023;-55
2022/08/31 04:43:59;;;;;;;17.08;8.32;;;22.50;99.90;;;;;;5114545;28;20049;-55
2022/08/31 04:46:26;;;;;;;15.05;8.23;;;22.60;99.90;;;;;;5113994;28;20070;-55
2022/08/31 04:48:52;;;;;;;16.10;8.07;;;22.60;99.90;;;;;;5114694;28;20035;-53
2022/08/31 04:51:27;;;;;;;16.38;8.65;;;22.50;99.90;;;;;;5114363;28;20024;-53
2022/08/31 04:53:53;;;;;;;17.30;8.35;;;22.50;99.90;;;;;;5114597;28;20024;-54
2022/08/31 04:56:25;;;;;;;18.33;8.40;;;22.50;99.90;;;;;;5113593;28;20059;-52
2022/08/31 04:59:01;;;;;;;13.60;7.97;;;22.50;99.90;;;;;;5112711;28;20024;-52
2022/08/31 05:01:33;;;;;;;15.98;8.45;;;22.60;99.90;;;;;;5114148;28;20027;-54
2022/08/31 05:04:00;;;;;;;14.77;7.97;;;22.50;99.90;;;;;;5094151;28;20496;-52
2022/08/31 05:06:32;;;;;;;18.70;8.75;;;22.60;99.90;;;;;;5111043;28;20080;-55
2022/08/31 05:09:01;;;;;;;19.63;8.90;;;22.60;99.90;;;;;;5114327;28;20046;-53
2022/08/31 05:11:28;;;;;;;15.77;8.90;;;22.60;99.90;;;;;;5112542;28;20404;-53
2022/08/31 05:13:57;;;;;;;15.15;8.85;;;22.60;99.90;;;;;;5113842;28;20069;-53
2022/08/31 05:16:23;;;;;;;18.70;8.85;;;22.70;99.90;;;;;;5113742;28;20103;-55
2022/08/31 05:18:49;;;;;;;14.35;8.52;;;22.70;99.90;;;;;;5113104;28;20468;-54
2022/08/31 05:21:27;;;;;;;16.42;8.75;;;22.70;99.90;;;;;;5113336;28;20020;-53
2022/08/31 05:23:57;;;;;;;14.32;8.07;;;22.70;99.90;;;;;;5113820;28;20028;-52
2022/08/31 05:26:29;;;;;;;16.20;8.85;;;22.70;99.90;;;;;;5112567;28;20027;-51
2022/08/31 05:28:56;;;;;;;15.98;8.65;;;22.70;99.90;;;;;;5113311;28;20414;-54
2022/08/31 05:31:23;;;;;;;17.50;8.82;;;22.50;99.90;;;;;;5112925;28;20024;-49
2022/08/31 05:33:49;;;;;;;16.17;8.48;;;22.50;99.90;;;;;;5113942;28;20045;-54
2022/08/31 05:36:16;;;;;;;15.90;8.90;;;22.30;99.90;;;;;;5112584;28;20114;-50
2022/08/31 05:38:43;;;;;;;19.25;9.32;;;22.40;99.90;;;;;;5113744;28;20032;-50
2022/08/31 05:41:09;;;;;;;13.27;7.70;;;22.40;99.90;;;;;;5113400;28;20392;-53
2022/08/31 05:43:36;;;;;;;19.83;8.27;;;22.40;99.90;;;;;;5113102;28;20103;-52
2022/08/31 05:46:07;;;;;;;14.55;9.23;;;22.50;99.90;;;;;;5111751;28;20575;-50
2022/08/31 05:48:35;;;;;;;14.90;8.10;;;22.40;99.90;;;;;;5113340;28;20040;-54
2022/08/31 05:51:10;;;;;;;15.10;8.30;;;22.40;99.90;;;;;;5101325;28;20028;-48
2022/08/31 05:53:37;;;;;;;15.02;8.30;;;22.30;99.90;;;;;;5109637;28;20035;-55
2022/08/31 05:56:13;;;;;;;10.98;7.50;;;22.30;99.90;;;;;;5093352;28;20024;-54
2022/08/31 05:58:40;;;;;;;10.48;7.40;;;22.40;99.90;;;;;;5111884;28;20526;-53
2022/08/31 06:01:18;;;;;;;12.93;8.48;;;22.40;99.90;;;;;;5113159;28;20027;-50
2022/08/31 06:03:44;;;;;;;11.90;8.00;;;22.30;99.90;;;;;;5113416;28;20049;-50
2022/08/31 06:06:10;;;;;;;12.32;7.60;;;22.20;99.90;;;;;;5112565;28;20023;-54
2022/08/31 06:08:37;;;;;;;11.52;7.88;;;22.40;99.90;;;;;;5113250;28;20028;-52
2022/08/31 06:11:05;;;;;;;12.23;8.10;;;22.40;99.90;;;;;;5111081;28;20399;-54
2022/08/31 06:13:31;;;;;;;11.93;7.72;;;22.30;99.90;;;;;;5113179;28;20030;-52
2022/08/31 06:16:01;;;;;;;13.65;7.97;;;22.40;99.90;;;;;;5113351;27;20027;-52
2022/08/31 06:18:27;;;;;;;13.13;8.15;;;22.40;99.90;;;;;;5112890;28;20597;-50
2022/08/31 06:21:08;;;;;;;11.40;7.70;;;22.50;99.90;;;;;;5112304;28;20028;-58
2022/08/31 06:23:38;;;;;;;13.27;7.80;;;22.40;99.90;;;;;;5112135;28;20061;-53
2022/08/31 06:26:14;;;;;;;12.63;7.85;;;22.50;99.90;;;;;;5108778;28;20042;-48
2022/08/31 06:28:42;;;;;;;12.55;7.97;;;22.30;99.90;;;;;;5112272;28;20042;-51
2022/08/31 06:31:19;;;;;;;13.23;8.30;;;22.30;99.90;;;;;;5112292;28;20046;-48
2022/08/31 06:33:46;;;;;;;10.35;8.15;;;22.30;99.90;;;;;;5111060;28;20031;-50
2022/08/31 06:36:14;;;;;;;11.50;7.93;;;22.40;99.90;;;;;;5111882;28;20107;-51
2022/08/31 06:38:42;;;;;;;11.35;8.38;;;22.40;99.90;;;;;;5112374;28;20384;-53
2022/08/31 06:41:28;;;;;;;11.48;7.95;;;22.50;99.90;;;;;;5111500;28;20024;-48
2022/08/31 06:43:55;;;;;;;11.38;7.70;;;22.50;99.90;;;;;;5112542;28;20055;-49
2022/08/31 06:46:22;;;;;;;10.60;7.60;;;22.50;99.90;;;;;;5112211;28;20082;-47
2022/08/31 06:48:49;;;;;;;10.40;7.78;;;22.60;99.90;;;;;;5112230;28;20042;-47
2022/08/31 06:51:15;;;;;;;10.88;7.68;;;22.60;99.90;;;;;;5103790;28;20024;-47
2022/08/31 06:53:42;;;;;;;12.50;7.95;;;22.60;99.90;;;;;;5091873;28;20024;-46
2022/08/31 06:56:13;;;;;;;12.93;8.20;;;22.50;99.90;;;;;;5106443;28;20024;-49
2022/08/31 06:58:39;;;;;;;11.88;7.97;;;22.50;99.90;;;;;;5111556;28;20024;-49
2022/08/31 07:01:19;;;;;;;11.55;7.68;;;22.30;99.90;;;;;;5110668;28;20030;-48
2022/08/31 07:03:47;;;;;;;15.75;8.27;;;22.20;99.90;;;;;;5112292;28;20034;-46
2022/08/31 07:06:19;;;;;;;11.27;7.78;;;22.30;99.90;;;;;;5106874;28;20026;-47
2022/08/31 07:08:48;;;;;;;12.07;7.68;;;22.50;99.90;;;;;;5111622;28;20028;-48
2022/08/31 07:11:18;;;;;;;9.40;7.40;;;22.50;99.90;;;;;;5111670;28;20031;-49
2022/08/31 07:13:44;;;;;;;9.80;7.32;;;22.70;99.90;;;;;;5111852;28;20024;-46
2022/08/31 07:16:12;;;;;;;14.85;7.35;;;22.70;99.90;;;;;;5110770;28;20019;-48
2022/08/31 07:18:39;;;;;;;16.45;8.10;;;22.70;99.90;;;;;;5110458;28;20043;-49
2022/08/31 07:21:14;;;;;;;17.48;7.90;;;22.70;99.90;;;;;;5101456;28;20028;-48
2022/08/31 07:23:40;;;;;;;15.52;8.02;;;22.70;99.90;;;;;;5110899;28;20068;-49
2022/08/31 07:26:09;;;;;;;14.15;7.55;;;22.70;99.90;;;;;;5111267;28;20018;-49
2022/08/31 07:28:37;;;;;;;11.32;7.85;;;22.90;99.90;;;;;;5105593;28;20028;-51
2022/08/31 07:31:04;;;;;;;10.77;7.55;;;23.00;99.90;;;;;;5111248;28;20068;-50
2022/08/31 07:33:37;;;;;;;14.98;7.70;;;23.20;99.90;;;;;;5103997;28;20369;-48
2022/08/31 07:36:22;;;;;;;;;;;23.30;99.90;;;;;;5105854;28;20023;-48
2022/08/31 07:44:19;;;;;;;11.10;7.10;;;23.80;99.90;;;;;;5111395;28;20065;-60
2022/08/31 07:46:46;;;;;;;10.55;7.13;;;24.60;99.90;;;;;;5111541;28;20051;-61
2022/08/31 07:49:13;;;;;;;11.23;7.47;;;25.40;99.90;;;;;;5113450;28;20046;-62
2022/08/31 07:51:45;;;;;;;10.63;7.45;;;24.30;99.90;;;;;;5106588;28;20077;-61
2022/08/31 07:54:12;;;;;;;12.80;7.82;;;24.10;99.90;;;;;;5109953;28;20023;-62
2022/08/31 07:56:40;;;;;;;11.38;8.38;;;24.40;99.90;;;;;;5112160;28;20051;-61
2022/08/31 07:59:07;;;;;;;10.38;7.90;;;24.10;99.90;;;;;;5114613;28;20031;-61
2022/08/31 08:01:33;;;;;;;11.15;7.65;;;24.20;99.90;;;;;;5111784;28;20030;-62
2022/08/31 08:04:01;;;;;;;13.75;7.63;;;24.30;99.90;;;;;;5112460;28;20028;-60
2022/08/31 08:06:28;;;;;;;17.88;8.10;;;24.50;99.90;;;;;;5113669;28;20027;-60
2022/08/31 08:08:56;;;;;;;15.07;7.75;;;24.90;99.90;;;;;;5114277;28;20044;-61
2022/08/31 08:11:22;;;;;;;17.13;8.05;;;25.00;99.90;;;;;;5112320;28;20020;-62
2022/08/31 08:13:48;;;;;;;16.90;8.18;;;25.10;99.90;;;;;;5110671;28;20043;-69
2022/08/31 08:16:14;;;;;;;13.80;7.50;;;24.60;99.90;;;;;;5108436;28;20479;-67
2022/08/31 08:18:40;;;;;;;16.70;8.30;;;24.50;99.90;;;;;;5110632;28;20032;-67
2022/08/31 08:21:07;;;;;;;11.82;7.63;;;24.60;99.90;;;;;;5108822;28;20227;-74
2022/08/31 08:23:33;;;;;;;14.13;8.00;;;24.80;99.90;;;;;;5111466;28;20039;-68
2022/08/31 08:26:00;;;;;;;11.40;8.20;;;24.90;99.90;;;;;;5112579;28;20054;-67
2022/08/31 08:28:29;;;;;;;12.43;8.00;;;24.80;99.90;;;;;;5111729;28;20050;-66
2022/08/31 08:30:59;;;;;;;12.05;8.02;;;24.80;99.90;;;;;;5111794;28;20024;-65
2022/08/31 08:33:27;;;;;;;10.07;7.28;;;25.10;99.90;;;;;;5111205;28;20031;-67
2022/08/31 08:35:59;;;;;;;12.25;8.32;;;25.60;99.90;;;;;;5113346;28;20063;-66
2022/08/31 08:38:25;;;;;;;13.63;8.00;;;25.80;99.90;;;;;;5110334;28;20103;-66
2022/08/31 08:40:52;;;;;;;11.48;7.80;;;26.00;99.90;;;;;;5114760;28;20028;-66
2022/08/31 08:43:21;;;;;;;12.25;8.40;;;25.60;99.90;;;;;;5111369;28;20052;-66
2022/08/31 08:45:51;;;;;;;11.57;8.73;;;25.50;99.90;;;;;;5105203;28;20050;-66
2022/08/31 08:48:21;;;;;;;12.95;8.73;;;25.50;99.90;;;;;;5113297;28;20027;-65
2022/08/31 08:50:50;;;;;;;8.25;7.20;;;26.00;99.90;;;;;;5112898;28;20027;-65
2022/08/31 08:53:18;;;;;;;8.73;7.30;;;26.20;99.90;;;;;;5113753;28;20040;-66
2022/08/31 08:55:43;;;;;;;11.95;7.97;;;26.60;99.90;;;;;;5113764;28;20028;-67
2022/08/31 08:58:10;;;;;;;10.23;7.25;;;26.60;99.90;;;;;;5113591;28;20024;-65
2022/08/31 09:00:37;;;;;;;9.65;7.57;;;28.20;99.90;;;;;;5113084;28;20027;-65
2022/08/31 09:03:38;;;;;;;12.32;6.93;;;28.60;99.90;;;;;;5114244;28;20377;-66
2022/08/31 09:06:09;;;;;;;13.63;8.23;;;27.90;99.90;;;;;;5113857;28;20132;-66
2022/08/31 09:09:19;;;;;;;16.70;8.23;;;28.10;99.90;;;;;;5113614;28;20071;-66
2022/08/31 09:12:19;;;;;;;12.50;8.13;;;27.80;99.90;;;;;;5070909;28;20138;-66
2022/08/31 09:14:57;;;;;;;17.05;7.68;;;27.40;99.90;;;;;;5071056;28;20020;-66
2022/08/31 09:17:48;;;;;;;28.95;7.35;;;28.70;99.90;;;;;;5070014;28;20036;-65
2022/08/31 09:20:16;;;;;;;19.73;8.10;;;29.50;99.90;;;;;;5058744;28;20048;-65
2022/08/31 09:22:48;;;;;;;15.13;7.40;;;28.00;99.90;;;;;;5059555;28;20112;-64
2022/08/31 09:25:33;;;;;;;9.50;7.10;;;27.40;99.90;;;;;;5050763;28;20025;-66
2022/08/31 09:28:03;;;;;;;16.90;7.95;;;27.70;99.90;;;;;;5049696;28;20260;-65
2022/08/31 09:30:51;;;;;;;16.65;7.35;;;28.20;99.90;;;;;;5050131;28;20418;-65
2022/08/31 09:33:16;;;;;;;11.85;6.45;;;28.20;99.90;;;;;;5050137;28;20033;-66
2022/08/31 09:35:42;;;;;;;10.27;6.60;;;29.20;99.90;;;;;;5050188;28;20039;-64
2022/08/31 09:38:15;;;;;;;10.10;6.70;;;29.80;99.90;;;;;;5049241;28;20087;-65
2022/08/31 09:40:48;;;;;;;9.80;6.35;;;30.50;99.90;;;;;;5067069;28;20445;-65
2022/08/31 09:43:24;;;;;;;8.70;6.00;;;30.70;99.90;;;;;;5070226;28;20135;-65
2022/08/31 09:45:52;;;;;;;8.52;6.05;;;31.10;99.90;;;;;;5069401;28;20059;-65
2022/08/31 09:48:50;;;;;;;9.10;6.20;;;30.00;99.90;;;;;;5076256;28;20054;-65
2022/08/31 09:51:29;;;;;;;8.85;6.03;;;29.90;99.90;;;;;;5112330;28;20012;-64
2022/08/31 09:56:56;;;;;;;8.48;6.00;;;28.10;99.90;;;;;;5113234;28;20181;-65
2022/08/31 09:59:42;;;;;;;11.80;6.43;;;30.00;99.90;;;;;;5112266;28;20073;-65
2022/08/31 10:02:27;;;;;;;41.13;11.27;;;30.40;99.90;;;;;;5109833;28;20019;-64
2022/08/31 10:04:59;;;;;;;22.95;8.57;;;31.00;99.90;;;;;;5103244;28;20030;-64
2022/08/31 10:08:05;;;;;;;14.52;7.63;;;30.10;99.90;;;;;;5113611;28;20167;-65
2022/08/31 10:10:38;;;;;;;15.95;6.60;;;31.00;99.90;;;;;;5105090;28;20764;-64
2022/08/31 10:13:35;;;;;;;13.18;5.93;;;29.70;99.90;;;;;;5112357;28;20015;-62
2022/08/31 10:16:15;;;;;;;11.38;6.20;;;29.80;99.90;;;;;;5112187;28;20032;-64
2022/08/31 10:18:51;;;;;;;12.73;6.43;;;29.10;99.90;;;;;;5110210;28;20047;-65
2022/08/31 10:21:27;;;;;;;11.27;6.22;;;29.00;99.90;;;;;;5110991;28;20116;-65
2022/08/31 10:24:19;;;;;;;8.57;5.90;;;28.40;99.90;;;;;;5112469;28;20041;-64
2022/08/31 10:26:55;;;;;;;7.60;5.90;;;28.20;99.90;;;;;;5112561;28;20118;-66
2022/08/31 10:29:47;;;;;;;11.02;5.75;;;27.60;99.90;;;;;;5112313;28;20092;-66
2022/08/31 10:32:26;;;;;;;9.82;6.03;;;28.40;99.90;;;;;;5111353;28;20024;-65
2022/08/31 10:35:07;;;;;;;10.32;5.60;;;28.80;99.90;;;;;;5111860;28;20102;-65
2022/08/31 10:37:53;;;;;;;9.30;6.10;;;29.30;99.90;;;;;;5112100;28;20039;-64
2022/08/31 10:40:19;;;;;;;8.85;5.65;;;28.80;99.90;;;;;;5111482;28;20497;-65
2022/08/31 10:42:59;;;;;;;9.88;5.32;;;29.00;99.90;;;;;;5110757;28;20056;-65
2022/08/31 10:45:28;;;;;;;10.40;5.78;;;29.10;99.90;;;;;;5107622;28;20500;-66
2022/08/31 10:47:56;;;;;;;8.55;5.55;;;28.70;99.90;;;;;;5106090;28;20042;-66
2022/08/31 10:50:49;;;;;;;9.68;5.40;;;28.00;99.90;;;;;;5111571;28;20027;-66
2022/08/31 10:53:31;;;;;;;8.38;5.30;;;29.30;99.90;;;;;;5109597;28;20044;-65
2022/08/31 10:56:15;;;;;;;9.35;5.13;;;29.60;99.90;;;;;;5108504;28;20031;-66
2022/08/31 10:59:07;;;;;;;9.13;5.28;;;29.50;99.90;;;;;;5110439;28;20028;-66
2022/08/31 11:02:02;;;;;;;10.87;5.33;;;28.80;99.90;;;;;;5099653;28;20042;-65
2022/08/31 11:04:50;;;;;;;9.75;5.50;;;28.00;99.90;;;;;;5091486;28;20370;-67
2022/08/31 11:07:23;;;;;;;8.80;5.82;;;28.40;99.90;;;;;;5090879;28;20030;-66
2022/08/31 11:10:09;;;;;;;;;;;28.00;99.90;;;;;;5091677;28;20047;-67
2022/08/31 11:12:41;;;;;;;9.35;5.90;;;28.20;99.90;;;;;;5090144;28;19908;-67
2022/08/31 11:15:49;;;;;;;10.43;6.65;;;28.20;99.90;;;;;;5090828;28;20548;-65
2022/08/31 11:18:38;;;;;;;9.48;6.30;;;27.80;99.90;;;;;;5090977;28;20492;-66
2022/08/31 11:21:27;;;;;;;9.38;6.43;;;28.10;99.90;;;;;;5095970;28;20020;-66
2022/08/31 11:24:05;;;;;;;9.88;6.65;;;27.90;99.90;;;;;;5093758;28;20123;-66
2022/08/31 11:26:56;;;;;;;9.23;7.05;;;27.80;99.90;;;;;;5091534;28;20025;-66
2022/08/31 11:29:42;;;;;;;9.73;7.00;;;28.10;99.90;;;;;;5090457;28;20035;-66
2022/08/31 11:32:14;;;;;;;10.43;7.80;;;27.80;99.90;;;;;;5091284;28;20121;-66
2022/08/31 11:34:55;;;;;;;10.30;7.03;;;28.20;99.90;;;;;;5090659;28;20028;-67
2022/08/31 11:37:53;;;;;;;8.93;7.00;;;28.00;99.90;;;;;;5103036;28;20105;-65
2022/08/31 11:40:58;;;;;;;11.40;7.10;;;27.70;99.90;;;;;;5108738;28;20024;-65
2022/08/31 11:43:30;;;;;;;9.07;6.60;;;28.20;99.90;;;;;;5110827;28;20044;-65
2022/08/31 11:46:00;;;;;;;13.00;7.28;;;28.90;99.90;;;;;;5108565;28;20063;-67
2022/08/31 11:48:50;;;;;;;8.40;6.38;;;28.70;99.90;;;;;;5110911;28;20027;-66
2022/08/31 11:51:36;;;;;;;9.77;6.10;;;29.00;99.90;;;;;;5111495;28;20035;-67
2022/08/31 11:54:10;;;;;;;7.80;5.97;;;29.10;99.90;;;;;;5109952;28;20012;-66
2022/08/31 11:56:46;;;;;;;9.10;6.07;;;29.40;99.90;;;;;;5106007;28;20032;-66
2022/08/31 11:59:30;;;;;;;9.80;6.10;;;29.30;99.90;;;;;;5090671;28;20032;-66
2022/08/31 12:01:58;;;;;;;9.23;6.30;;;29.40;99.90;;;;;;5099826;28;20482;-65
2022/08/31 12:04:44;;;;;;;7.88;5.82;;;29.30;99.90;;;;;;5110339;28;20491;-65
2022/08/31 12:07:13;;;;;;;7.60;6.05;;;28.90;99.90;;;;;;5108964;28;20039;-66
2022/08/31 12:10:03;;;;;;;8.65;6.30;;;28.30;99.90;;;;;;5089587;28;20079;-65
2022/08/31 12:12:50;;;;;;;9.10;6.47;;;29.40;99.90;;;;;;5104678;28;20567;-65
2022/08/31 12:15:35;;;;;;;8.88;6.20;;;29.90;99.90;;;;;;5110420;28;20081;-66
2022/08/31 12:18:07;;;;;;;10.15;6.00;;;29.80;99.90;;;;;;5106901;28;20018;-66
2022/08/31 12:23:59;;;;;;;9.00;6.07;;;29.00;99.90;;;;;;5107059;28;20042;-66
2022/08/31 12:26:25;;;;;;;11.32;6.45;;;30.20;99.90;;;;;;5109084;28;20526;-66
2022/08/31 12:29:08;;;;;;;9.35;6.57;;;29.40;99.90;;;;;;5105511;28;20031;-66
2022/08/31 12:31:38;;;;;;;9.18;6.60;;;28.50;99.90;;;;;;5108218;28;20020;-65
2022/08/31 12:34:07;;;;;;;9.10;6.43;;;28.90;99.90;;;;;;5102367;28;20027;-66
2022/08/31 12:36:35;;;;;;;8.23;6.22;;;29.30;99.90;;;;;;5112024;28;20166;-65
2022/08/31 12:39:23;;;;;;;10.77;6.20;;;29.00;99.90;;;;;;5114101;28;20035;-64
2022/08/31 12:42:04;;;;;;;11.70;7.13;;;29.00;99.90;;;;;;5113303;27;20058;-67
2022/08/31 12:44:34;;;;;;;10.65;6.53;;;29.10;99.90;;;;;;5103240;28;20020;-66
2022/08/31 12:47:02;;;;;;;11.65;6.93;;;29.70;99.90;;;;;;5112293;28;20061;-66
2022/08/31 12:50:11;;;;;;;8.93;6.85;;;29.30;99.90;;;;;;5114761;28;20434;-66
2022/08/31 12:53:07;;;;;;;8.73;6.80;;;29.60;99.90;;;;;;5114723;28;20434;-67
2022/08/31 12:55:36;;;;;;;7.20;6.13;;;28.90;99.90;;;;;;5114195;28;20024;-66
2022/08/31 12:58:22;;;;;;;9.15;6.38;;;28.50;99.90;;;;;;5113081;28;20028;-67
2022/08/31 13:00:49;;;;;;;10.05;6.05;;;28.70;99.90;;;;;;5113944;28;20510;-67
2022/08/31 13:03:23;;;;;;;9.95;6.22;;;28.80;99.90;;;;;;5113883;28;20016;-66
2022/08/31 13:06:12;;;;;;;9.70;5.95;;;29.00;99.90;;;;;;5113883;28;20655;-66
2022/08/31 13:08:43;;;;;;;7.90;5.93;;;28.60;99.90;;;;;;5113865;28;20119;-67
2022/08/31 13:11:25;;;;;;;9.02;6.15;;;28.70;99.90;;;;;;5113591;28;20051;-65
2022/08/31 13:14:26;;;;;;;10.88;5.72;;;28.90;99.90;;;;;;5094380;28;20028;-67
2022/08/31 13:17:20;;;;;;;9.05;5.93;;;29.30;99.90;;;;;;5094365;28;20055;-67